Skip Navigation Links Skip Navigation Links

Current Weather

Quelimane, Mozambique

For information only: do not use for flight planning or navigation.
Latest weather
Observation time Thursday, January 27, 2022 7:00 AM CAT
Local time Thursday, January 27, 2022 7:36 AM CAT
Flight conditions Visual Meteorological Conditions
Winds
Wind direction East-Northeast (60°)
Wind speed 7 mph
Visibility 6.2 mi.
Sky condition
Ceiling 9,000 ft. broken clouds
Cloud layer scattered clouds 1,800 ft.
Cloud layer broken clouds 9,000 ft.
Temperature 77°F
Dewpoint 75°F
Altimeter 29.85 in.Hg
Derived measurements
Relative humidity 94%
Heat index 77°F
Density altitude 1640 ft.
METAR FQQL 270500Z 06006KT 9999 SCT018 BKN090 25/24 Q1011

Settings

Location code

InnerDrive.Weather 4.0.6770.0 Release CLR 4.0.30319.42000
Copyright ©2018 Inner Drive Technology. All rights reserved. Portions Copyright ©1986-2018 David Braverman.

Find weather

Site navigation


Skip Navigation Links

Place info

Page info

PayPal - The safer, easier way to pay online!

Return home.

Copyright ©2022 Inner Drive Technology. Purveyors of fine, hand-crafted computer software. Page printed 2022-01-27T05:36:44 UTC.